createdAt,value
2018-04-25T00:00:28.583Z,14.28
2018-04-25T00:02:58.113Z,14.46
2018-04-25T00:05:24.426Z,14.57
2018-04-25T00:07:50.793Z,14.64
2018-04-25T00:10:17.279Z,14.74
2018-04-25T00:12:43.583Z,14.71
2018-04-25T00:15:09.924Z,14.74
2018-04-25T00:17:36.415Z,14.61
2018-04-25T00:20:02.787Z,14.53
2018-04-25T00:22:29.124Z,14.63
2018-04-25T00:24:55.443Z,14.63
2018-04-25T00:27:21.974Z,14.46
2018-04-25T00:29:48.340Z,14.44
2018-04-25T00:32:14.634Z,14.49
2018-04-25T00:34:40.916Z,14.50
2018-04-25T00:37:07.289Z,14.55
2018-04-25T00:39:33.567Z,14.47
2018-04-25T00:41:59.895Z,14.44
2018-04-25T00:44:26.457Z,14.40
2018-04-25T00:46:52.778Z,14.39
2018-04-25T00:49:19.188Z,14.38
2018-04-25T00:51:45.464Z,14.43
2018-04-25T00:54:11.843Z,14.42
2018-04-25T00:56:38.169Z,14.48
2018-04-25T00:59:04.859Z,14.58
2018-04-25T01:01:31.179Z,14.60
2018-04-25T01:03:57.518Z,14.67
2018-04-25T01:06:23.934Z,14.61
2018-04-25T01:08:50.274Z,14.49
2018-04-25T01:11:16.638Z,14.40
2018-04-25T01:13:42.960Z,14.27
2018-04-25T01:16:09.291Z,14.37
2018-04-25T01:18:35.617Z,14.25
2018-04-25T01:21:02.116Z,14.17
2018-04-25T01:23:28.542Z,14.16
2018-04-25T01:26:11.582Z,14.29
2018-04-25T01:28:39.890Z,14.22
2018-04-25T01:31:06.223Z,14.27
2018-04-25T01:33:34.331Z,14.31
2018-04-25T01:36:00.734Z,14.26
2018-04-25T01:38:27.816Z,14.14
2018-04-25T01:40:54.188Z,14.08
2018-04-25T01:43:20.531Z,14.04
2018-04-25T01:45:59.471Z,13.83
2018-04-25T01:48:31.900Z,13.70
2018-04-25T01:50:58.382Z,13.58
2018-04-25T01:53:36.958Z,13.50
2018-04-25T01:56:15.415Z,13.54
2018-04-25T01:58:54.065Z,13.56
2018-04-25T02:01:20.099Z,13.48
2018-04-25T02:04:01.391Z,13.47
2018-04-25T02:06:27.667Z,13.48
2018-04-25T02:08:54.014Z,13.43
2018-04-25T02:11:20.427Z,13.37
2018-04-25T02:13:46.729Z,13.35
2018-04-25T02:16:13.126Z,13.46
2018-04-25T02:18:39.412Z,13.42
2018-04-25T02:21:05.690Z,13.37
2018-04-25T02:23:38.291Z,13.09
2018-04-25T02:26:04.563Z,12.94
2018-04-25T02:28:30.816Z,12.98
2018-04-25T02:30:57.199Z,12.88
2018-04-25T02:33:23.483Z,12.87
2018-04-25T02:35:49.858Z,12.76
2018-04-25T02:38:16.148Z,12.74
2018-04-25T02:40:42.414Z,12.66
2018-04-25T02:43:08.747Z,12.33
2018-04-25T02:45:35.014Z,12.20
2018-04-25T02:48:01.389Z,12.25
2018-04-25T02:50:27.661Z,12.40
2018-04-25T02:52:53.936Z,12.42
2018-04-25T02:55:20.257Z,12.48
2018-04-25T02:57:46.537Z,12.49
2018-04-25T03:00:12.823Z,12.49
2018-04-25T03:02:39.166Z,12.44
2018-04-25T03:05:05.547Z,12.47
2018-04-25T03:07:31.843Z,12.39
2018-04-25T03:09:58.203Z,12.30
2018-04-25T03:12:24.475Z,12.23
2018-04-25T03:14:50.740Z,12.15
2018-04-25T03:17:17.132Z,11.95
2018-04-25T03:19:43.411Z,11.63
2018-04-25T03:22:09.730Z,11.16
2018-04-25T03:24:35.993Z,11.11
2018-04-25T03:27:02.250Z,11.23
2018-04-25T03:29:28.871Z,11.33
2018-04-25T03:31:55.147Z,11.49
2018-04-25T03:34:21.535Z,11.53
2018-04-25T03:36:47.802Z,11.63
2018-04-25T03:39:14.065Z,11.66
2018-04-25T03:41:40.480Z,11.46
2018-04-25T03:44:06.808Z,11.38
2018-04-25T03:46:33.067Z,10.82
2018-04-25T03:48:59.353Z,10.61
2018-04-25T03:51:25.677Z,10.80
2018-04-25T03:53:52.044Z,10.89
2018-04-25T03:56:18.331Z,11.03
2018-04-25T03:58:44.632Z,11.15
2018-04-25T04:01:10.946Z,11.34
2018-04-25T04:03:37.228Z,11.47
2018-04-25T04:06:03.478Z,11.66
2018-04-25T04:08:29.908Z,11.10
2018-04-25T04:10:56.172Z,10.45
2018-04-25T04:13:22.444Z,10.30
2018-04-25T04:15:48.825Z,10.47
2018-04-25T04:18:15.083Z,10.55
2018-04-25T04:20:41.374Z,10.48
2018-04-25T04:23:07.750Z,10.24
2018-04-25T04:25:34.027Z,10.08
2018-04-25T04:28:00.347Z,10.24
2018-04-25T04:33:21.280Z,10.53
2018-04-25T04:35:47.557Z,10.82
2018-04-25T04:38:13.831Z,10.91
2018-04-25T04:40:40.139Z,11.08
2018-04-25T04:43:06.441Z,11.27
2018-04-25T04:45:32.725Z,11.42
2018-04-25T04:47:59.031Z,11.66
2018-04-25T04:50:25.318Z,11.59
2018-04-25T04:52:51.603Z,11.70
2018-04-25T04:55:18.278Z,12.02
2018-04-25T04:57:44.540Z,12.10
2018-04-25T05:00:10.814Z,12.28
2018-04-25T05:02:37.127Z,12.38
2018-04-25T05:05:03.405Z,12.50
2018-04-25T05:07:29.691Z,12.86
2018-04-25T05:09:55.977Z,12.90
2018-04-25T05:12:22.265Z,13.03
2018-04-25T05:14:48.533Z,13.42
2018-04-25T05:17:15.034Z,13.83
2018-04-25T05:19:41.357Z,14.17
2018-04-25T05:22:07.636Z,14.44
2018-04-25T05:24:33.990Z,14.10
2018-04-25T05:27:00.283Z,14.06
2018-04-25T05:29:26.576Z,14.30
2018-04-25T05:31:53.095Z,14.67
2018-04-25T05:34:19.374Z,15.02
2018-04-25T05:36:45.743Z,14.84
2018-04-25T05:39:12.023Z,15.20
2018-04-25T05:41:38.296Z,15.31
2018-04-25T05:44:04.646Z,15.37
2018-04-25T05:46:31.027Z,15.38
2018-04-25T05:48:57.239Z,15.62
2018-04-25T05:51:23.859Z,15.81
2018-04-25T05:53:50.144Z,15.98
2018-04-25T05:56:16.416Z,16.25
2018-04-25T05:58:42.890Z,16.43
2018-04-25T06:01:09.359Z,16.83
2018-04-25T06:03:35.650Z,17.02
2018-04-25T06:06:01.940Z,17.15
2018-04-25T06:08:28.360Z,16.97
2018-04-25T06:10:54.690Z,17.25
2018-04-25T06:13:20.957Z,16.76
2018-04-25T06:15:47.320Z,16.62
2018-04-25T06:18:13.603Z,16.97
2018-04-25T06:20:39.892Z,16.74
2018-04-25T06:23:06.233Z,16.73
2018-04-25T06:25:32.522Z,16.93
2018-04-25T06:27:58.831Z,17.27
2018-04-25T06:30:25.216Z,17.52
2018-04-25T06:32:51.641Z,17.57
2018-04-25T06:35:17.966Z,17.37
2018-04-25T06:37:44.247Z,17.65
2018-04-25T06:40:10.582Z,17.57
2018-04-25T06:42:36.847Z,17.65
2018-04-25T06:45:03.277Z,17.85
2018-04-25T06:47:29.720Z,17.93
2018-04-25T06:49:56.000Z,18.58
2018-04-25T06:52:22.277Z,18.96
2018-04-25T06:54:48.780Z,19.34
2018-04-25T06:57:15.063Z,19.41
2018-04-25T06:59:41.334Z,18.68
2018-04-25T07:02:07.637Z,18.34
2018-04-25T07:04:33.916Z,18.54
2018-04-25T07:07:00.301Z,19.06
2018-04-25T07:09:26.662Z,18.60
2018-04-25T07:11:52.968Z,18.93
2018-04-25T07:14:19.234Z,19.18
2018-04-25T07:16:45.611Z,19.03
2018-04-25T07:19:11.904Z,19.70
2018-04-25T07:21:38.173Z,19.27
2018-04-25T07:24:04.614Z,19.12
2018-04-25T07:26:30.879Z,19.34
2018-04-25T07:28:57.213Z,20.01
2018-04-25T07:31:23.499Z,20.34
2018-04-25T07:33:49.871Z,20.56
2018-04-25T07:36:16.148Z,20.44
2018-04-25T07:38:42.435Z,20.55
2018-04-25T07:41:11.975Z,21.01
2018-04-25T07:43:38.240Z,20.51
2018-04-25T07:46:04.535Z,20.58
2018-04-25T07:48:30.888Z,21.20
2018-04-25T07:50:57.252Z,21.59
2018-04-25T07:53:23.613Z,21.50
2018-04-25T07:55:49.915Z,21.25
2018-04-25T07:58:16.214Z,21.89
2018-04-25T08:00:42.491Z,22.11
2018-04-25T08:03:08.773Z,22.22
2018-04-25T08:05:35.167Z,22.01
2018-04-25T08:08:01.534Z,21.88
2018-04-25T08:10:27.806Z,22.36
2018-04-25T08:13:06.364Z,21.96
2018-04-25T08:15:44.899Z,22.37
2018-04-25T08:18:23.298Z,22.39
2018-04-25T08:21:13.556Z,22.49
2018-04-25T08:23:39.847Z,22.64
2018-04-25T08:26:06.116Z,22.15
2018-04-25T08:28:32.472Z,22.32
2018-04-25T08:30:58.732Z,21.92
2018-04-25T08:33:25.092Z,22.02
2018-04-25T08:35:51.366Z,22.25
2018-04-25T08:38:17.627Z,22.89
2018-04-25T08:40:43.898Z,23.46
2018-04-25T08:43:10.359Z,23.41
2018-04-25T08:45:36.624Z,23.60
2018-04-25T08:48:02.978Z,23.62
2018-04-25T08:50:29.262Z,23.73
2018-04-25T08:52:55.547Z,23.12
2018-04-25T08:55:22.086Z,23.32
2018-04-25T08:57:48.369Z,23.33
2018-04-25T09:00:14.642Z,23.75
2018-04-25T09:02:40.940Z,23.97
2018-04-25T09:05:07.263Z,24.38
2018-04-25T09:07:33.541Z,24.64
2018-04-25T09:09:59.855Z,24.68
2018-04-25T09:12:26.137Z,24.13
2018-04-25T09:14:52.411Z,24.75
2018-04-25T09:17:18.763Z,25.12
2018-04-25T09:19:45.630Z,24.95
2018-04-25T09:22:12.464Z,25.61
2018-04-25T09:24:38.988Z,25.55
2018-04-25T09:27:05.371Z,25.16
2018-04-25T09:29:31.701Z,25.37
2018-04-25T09:31:57.980Z,25.97
2018-04-25T09:34:24.292Z,25.88
2018-04-25T09:36:50.603Z,26.26
2018-04-25T09:39:16.877Z,26.21
2018-04-25T09:41:43.160Z,25.57
2018-04-25T09:44:09.702Z,25.45
2018-04-25T09:46:35.975Z,25.40
2018-04-25T09:49:02.253Z,26.18
2018-04-25T09:51:28.773Z,25.79
2018-04-25T09:53:55.079Z,26.61
2018-04-25T09:56:22.149Z,26.30
2018-04-25T09:58:48.691Z,26.33
2018-04-25T10:01:20.869Z,26.06
2018-04-25T10:03:47.232Z,26.02
2018-04-25T10:06:13.498Z,26.41
2018-04-25T10:08:39.796Z,26.15
2018-04-25T10:11:08.763Z,26.21
2018-04-25T10:13:35.042Z,26.21
2018-04-25T10:16:01.349Z,26.39
2018-04-25T10:18:27.612Z,26.45
2018-04-25T10:20:53.894Z,26.76
2018-04-25T10:23:21.101Z,26.74
2018-04-25T10:25:47.389Z,26.33
2018-04-25T10:28:13.670Z,26.54
2018-04-25T10:30:43.000Z,26.93
2018-04-25T10:33:09.264Z,27.33
2018-04-25T10:35:35.548Z,27.76
2018-04-25T10:38:01.865Z,27.54
2018-04-25T10:40:28.308Z,27.04
2018-04-25T10:42:55.341Z,27.75
2018-04-25T10:45:21.707Z,28.26
2018-04-25T10:47:47.985Z,27.71
2018-04-25T10:50:14.250Z,28.02
2018-04-25T10:52:40.647Z,28.23
2018-04-25T10:55:10.183Z,28.32
2018-04-25T10:57:36.443Z,28.77
2018-04-25T11:00:02.821Z,28.19
2018-04-25T11:02:29.213Z,27.78
2018-04-25T11:04:55.514Z,27.46
2018-04-25T11:07:21.856Z,27.36
2018-04-25T11:09:48.275Z,27.47
2018-04-25T11:12:14.543Z,26.95
2018-04-25T11:14:40.807Z,26.37
2018-04-25T11:17:07.107Z,26.60
2018-04-25T11:19:33.385Z,26.75
2018-04-25T11:21:59.756Z,25.92
2018-04-25T11:24:26.185Z,26.59
2018-04-25T11:26:52.506Z,26.51
2018-04-25T11:29:18.864Z,26.78
2018-04-25T11:31:45.133Z,26.59
2018-04-25T11:36:37.665Z,26.56
2018-04-25T11:39:03.990Z,26.72
2018-04-25T11:41:30.381Z,26.67
2018-04-25T11:43:56.671Z,26.82
2018-04-25T11:46:22.997Z,27.22
2018-04-25T11:48:49.370Z,27.85
2018-04-25T11:51:15.648Z,28.51
2018-04-25T11:53:42.018Z,29.04
2018-04-25T11:56:08.293Z,29.27
2018-04-25T11:58:34.561Z,29.60
2018-04-25T12:01:00.872Z,29.56
2018-04-25T12:03:27.138Z,27.58
2018-04-25T12:05:53.418Z,26.58
2018-04-25T12:08:19.786Z,26.68
2018-04-25T12:10:46.161Z,26.25
2018-04-25T12:13:12.848Z,26.65
2018-04-25T12:15:39.152Z,26.23
2018-04-25T12:18:05.413Z,25.95
2018-04-25T12:20:34.829Z,24.72
2018-04-25T12:23:01.092Z,23.97
2018-04-25T12:25:27.350Z,23.15
2018-04-25T12:27:53.663Z,23.07
2018-04-25T12:30:19.938Z,23.01
2018-04-25T12:32:46.284Z,22.37
2018-04-25T12:35:12.607Z,22.58
2018-04-25T12:37:38.922Z,22.62
2018-04-25T12:40:05.246Z,22.40
2018-04-25T12:42:31.514Z,22.15
2018-04-25T12:44:57.778Z,22.08
2018-04-25T12:47:24.092Z,21.78
2018-04-25T12:49:50.378Z,21.91
2018-04-25T12:52:16.641Z,22.05
2018-04-25T12:54:43.001Z,22.05
2018-04-25T12:57:09.271Z,22.18
2018-04-25T12:59:35.568Z,22.24
2018-04-25T13:02:02.250Z,22.31
2018-04-25T13:04:28.509Z,22.12
2018-04-25T13:06:54.844Z,22.17
2018-04-25T13:09:21.104Z,22.41
2018-04-25T13:11:47.583Z,22.39
2018-04-25T13:14:13.855Z,22.25
2018-04-25T13:16:40.121Z,22.10
2018-04-25T13:19:06.783Z,21.89
2018-04-25T13:21:33.045Z,22.02
2018-04-25T13:23:59.465Z,21.92
2018-04-25T13:26:25.939Z,22.08
2018-04-25T13:28:52.215Z,22.04
2018-04-25T13:31:18.579Z,21.86
2018-04-25T13:33:44.910Z,21.67
2018-04-25T13:36:11.370Z,21.67
2018-04-25T13:38:37.627Z,21.55
2018-04-25T13:41:03.959Z,21.46
2018-04-25T13:43:30.232Z,21.48
2018-04-25T13:45:56.527Z,21.58
2018-04-25T13:48:22.878Z,21.53
2018-04-25T13:50:49.195Z,21.27
2018-04-25T13:53:15.518Z,21.27
2018-04-25T13:55:41.855Z,21.32
2018-04-25T13:58:08.124Z,21.23
2018-04-25T14:00:34.684Z,21.18
2018-04-25T14:03:00.959Z,21.23
2018-04-25T14:05:27.351Z,21.08
2018-04-25T14:07:53.643Z,21.06
2018-04-25T14:10:19.929Z,21.08
2018-04-25T14:12:46.386Z,20.98
2018-04-25T14:15:12.708Z,21.33
2018-04-25T14:17:38.971Z,21.62
2018-04-25T14:20:05.574Z,21.92
2018-04-25T14:22:31.846Z,22.39
2018-04-25T14:24:58.135Z,22.39
2018-04-25T14:27:24.522Z,21.80
2018-04-25T14:29:50.819Z,21.34
2018-04-25T14:32:17.084Z,20.93
2018-04-25T14:34:43.396Z,20.50
2018-04-25T14:37:09.685Z,20.47
2018-04-25T14:39:35.952Z,20.33
2018-04-25T14:42:02.760Z,19.89
2018-04-25T14:44:29.033Z,19.66
2018-04-25T14:46:55.308Z,19.06
2018-04-25T14:49:21.686Z,18.81
2018-04-25T14:51:48.014Z,18.77
2018-04-25T14:54:14.290Z,18.71
2018-04-25T14:56:40.615Z,18.58
2018-04-25T14:59:06.982Z,18.60
2018-04-25T15:01:33.373Z,18.62
2018-04-25T15:03:59.618Z,18.68
2018-04-25T15:06:25.917Z,18.52
2018-04-25T15:08:52.203Z,18.62
2018-04-25T15:11:18.503Z,18.56
2018-04-25T15:13:45.431Z,18.48
2018-04-25T15:16:11.709Z,18.56
2018-04-25T15:18:38.058Z,18.54
2018-04-25T15:21:04.475Z,18.63
2018-04-25T15:23:30.819Z,18.75
2018-04-25T15:25:57.081Z,18.77
2018-04-25T15:28:23.394Z,18.57
2018-04-25T15:30:49.675Z,18.24
2018-04-25T15:33:15.935Z,17.73
2018-04-25T15:35:42.296Z,17.28
2018-04-25T15:38:08.669Z,16.81
2018-04-25T15:40:35.043Z,16.68
2018-04-25T15:43:01.323Z,16.60
2018-04-25T15:45:27.618Z,16.66
2018-04-25T15:47:53.938Z,16.45
2018-04-25T15:50:20.217Z,16.54
2018-04-25T15:52:46.483Z,16.59
2018-04-25T15:55:13.206Z,16.80
2018-04-25T15:57:39.480Z,16.92
2018-04-25T16:00:05.827Z,16.97
2018-04-25T16:02:32.095Z,16.98
2018-04-25T16:04:58.458Z,17.06
2018-04-25T16:07:24.738Z,16.95
2018-04-25T16:09:51.040Z,16.89
2018-04-25T16:12:17.485Z,16.65
2018-04-25T16:14:43.708Z,16.68
2018-04-25T16:17:10.131Z,16.62
2018-04-25T16:19:36.491Z,16.68
2018-04-25T16:22:02.872Z,16.78
2018-04-25T16:24:29.150Z,16.71
2018-04-25T16:26:55.435Z,16.70
2018-04-25T16:29:21.743Z,16.66
2018-04-25T16:31:48.036Z,16.65
2018-04-25T16:34:14.321Z,16.67
2018-04-25T16:36:40.766Z,16.57
2018-04-25T16:39:07.639Z,16.56
2018-04-25T16:41:34.042Z,16.55
2018-04-25T16:44:00.324Z,16.46
2018-04-25T16:46:26.674Z,16.48
2018-04-25T16:48:53.041Z,16.29
2018-04-25T16:51:19.491Z,15.96
2018-04-25T16:53:46.071Z,16.06
2018-04-25T16:56:15.233Z,16.16
2018-04-25T16:58:42.849Z,16.30
2018-04-25T17:01:09.129Z,16.19
2018-04-25T17:03:35.410Z,16.07
2018-04-25T17:06:01.742Z,16.10
2018-04-25T17:08:28.021Z,15.92
2018-04-25T17:10:54.412Z,15.82
2018-04-25T17:13:22.972Z,15.89
2018-04-25T17:15:51.306Z,15.81
2018-04-25T17:18:17.593Z,15.80
2018-04-25T17:20:43.864Z,15.76
2018-04-25T17:23:10.202Z,15.70
2018-04-25T17:25:36.500Z,15.30
2018-04-25T17:28:02.796Z,15.29
2018-04-25T17:30:29.138Z,15.26
2018-04-25T17:32:55.435Z,15.19
2018-04-25T17:35:21.721Z,15.12
2018-04-25T17:37:48.121Z,15.09
2018-04-25T17:40:15.137Z,14.93
2018-04-25T17:42:41.446Z,15.03
2018-04-25T17:45:07.892Z,15.03
2018-04-25T17:47:34.229Z,15.01
2018-04-25T17:50:00.556Z,14.97
2018-04-25T17:52:26.904Z,14.72
2018-04-25T17:54:53.197Z,14.66
2018-04-25T17:57:19.482Z,14.62
2018-04-25T17:59:45.985Z,14.60
2018-04-25T18:02:12.294Z,14.70
2018-04-25T18:04:38.579Z,14.53
2018-04-25T18:07:05.266Z,14.50
2018-04-25T18:09:31.571Z,14.40
2018-04-25T18:11:57.858Z,14.28
2018-04-25T18:14:24.284Z,14.28
2018-04-25T18:16:50.623Z,14.27
2018-04-25T18:19:16.925Z,14.25
2018-04-25T18:21:43.356Z,14.17
2018-04-25T18:24:09.645Z,13.99
2018-04-25T18:26:35.924Z,14.04
2018-04-25T18:29:02.316Z,13.99
2018-04-25T18:31:28.622Z,13.91
2018-04-25T18:33:54.902Z,13.91
2018-04-25T18:36:21.406Z,13.89
2018-04-25T18:38:47.844Z,13.91
2018-04-25T18:41:15.140Z,13.95
2018-04-25T18:43:41.444Z,13.86
2018-04-25T18:46:07.743Z,13.68
2018-04-25T18:48:34.136Z,13.68
2018-04-25T18:51:00.492Z,13.69
2018-04-25T18:53:26.780Z,13.65
2018-04-25T18:55:53.064Z,13.68
2018-04-25T18:58:19.632Z,13.64
2018-04-25T19:00:45.903Z,13.65
2018-04-25T19:03:12.281Z,13.63
2018-04-25T19:05:38.704Z,13.45
2018-04-25T19:08:05.008Z,13.39
2018-04-25T19:10:31.308Z,13.37
2018-04-25T19:12:57.634Z,13.39
2018-04-25T19:15:24.050Z,13.39
2018-04-25T19:17:50.343Z,13.02
2018-04-25T19:20:16.623Z,12.90
2018-04-25T19:22:42.984Z,12.95
2018-04-25T19:25:09.254Z,13.04
2018-04-25T19:27:35.530Z,13.09
2018-04-25T19:30:01.957Z,12.97
2018-04-25T19:32:31.372Z,12.99
2018-04-25T19:34:57.699Z,12.87
2018-04-25T19:37:23.987Z,12.91
2018-04-25T19:39:50.277Z,12.87
2018-04-25T19:42:16.772Z,12.90
2018-04-25T19:44:43.003Z,12.83
2018-04-25T19:47:09.339Z,12.85
2018-04-25T19:49:35.655Z,12.84
2018-04-25T19:52:01.949Z,12.81
2018-04-25T19:54:28.219Z,12.88
2018-04-25T19:56:54.623Z,12.72
2018-04-25T19:59:21.176Z,12.74
2018-04-25T20:01:47.460Z,12.49
2018-04-25T20:04:13.724Z,12.42
2018-04-25T20:06:40.139Z,12.33
2018-04-25T20:09:06.432Z,12.34
2018-04-25T20:11:32.713Z,12.45
2018-04-25T20:13:59.040Z,12.01
2018-04-25T20:16:25.307Z,11.55
2018-04-25T20:18:51.584Z,11.15
2018-04-25T20:21:18.833Z,11.04
2018-04-25T20:23:45.114Z,11.05
2018-04-25T20:26:11.467Z,10.91
2018-04-25T20:28:37.752Z,11.05
2018-04-25T20:31:04.048Z,10.99
2018-04-25T20:33:30.380Z,11.03
2018-04-25T20:35:56.698Z,11.11
2018-04-25T20:38:22.990Z,11.06
2018-04-25T20:40:49.916Z,10.97
2018-04-25T20:43:16.350Z,11.21
2018-04-25T20:45:42.622Z,11.16
2018-04-25T20:48:08.991Z,11.21
2018-04-25T20:50:35.266Z,11.26
2018-04-25T20:53:01.542Z,11.49
2018-04-25T20:55:27.871Z,11.50
2018-04-25T20:57:54.165Z,11.54
2018-04-25T21:00:20.452Z,11.50
2018-04-25T21:02:46.812Z,11.62
2018-04-25T21:05:13.134Z,11.54
2018-04-25T21:07:39.441Z,11.57
2018-04-25T21:10:05.816Z,11.66
2018-04-25T21:12:32.091Z,11.68
2018-04-25T21:14:58.398Z,11.45
2018-04-25T21:17:24.729Z,11.11
2018-04-25T21:19:51.027Z,11.14
2018-04-25T21:22:17.293Z,10.96
2018-04-25T21:24:43.639Z,10.63
2018-04-25T21:27:09.959Z,10.61
2018-04-25T21:29:36.273Z,10.68
2018-04-25T21:32:02.791Z,10.76
2018-04-25T21:34:29.115Z,10.69
2018-04-25T21:36:55.386Z,10.57
2018-04-25T21:39:21.813Z,10.44
2018-04-25T21:41:48.087Z,10.60
2018-04-25T21:44:14.360Z,10.71
2018-04-25T21:46:40.689Z,10.91
2018-04-25T21:49:07.038Z,10.98
2018-04-25T21:51:33.345Z,11.15
2018-04-25T21:53:59.658Z,11.00
2018-04-25T21:56:26.030Z,10.91
2018-04-25T21:58:52.329Z,10.62
2018-04-25T22:01:18.605Z,10.27
2018-04-25T22:03:45.315Z,10.21
2018-04-25T22:06:11.594Z,10.21
2018-04-25T22:08:37.870Z,9.93
2018-04-25T22:11:04.195Z,9.73
2018-04-25T22:13:30.523Z,9.30
2018-04-25T22:15:56.815Z,9.21
2018-04-25T22:18:23.168Z,9.15
2018-04-25T22:20:49.434Z,9.14
2018-04-25T22:23:15.743Z,9.08
2018-04-25T22:25:42.280Z,9.05
2018-04-25T22:28:11.280Z,8.96
2018-04-25T22:30:37.621Z,9.08
2018-04-25T22:33:03.893Z,9.37
2018-04-25T22:35:30.159Z,9.50
2018-04-25T22:37:56.659Z,9.70
2018-04-25T22:40:23.003Z,9.55
2018-04-25T22:42:49.275Z,9.86
2018-04-25T22:45:15.580Z,9.72
2018-04-25T22:47:41.849Z,9.68
2018-04-25T22:50:08.123Z,9.47
2018-04-25T22:52:34.434Z,9.27
2018-04-25T22:55:00.730Z,9.11
2018-04-25T22:57:27.019Z,9.13
2018-04-25T22:59:54.391Z,8.91
2018-04-25T23:02:20.703Z,8.73
2018-04-25T23:04:46.969Z,8.59
2018-04-25T23:07:13.335Z,8.63
2018-04-25T23:09:39.594Z,8.62
2018-04-25T23:12:05.919Z,8.70
2018-04-25T23:14:32.191Z,8.72
2018-04-25T23:16:58.460Z,8.75
2018-04-25T23:19:24.782Z,8.94
2018-04-25T23:21:51.076Z,9.09
2018-04-25T23:24:17.353Z,9.01
2018-04-25T23:26:43.712Z,9.00
2018-04-25T23:29:10.025Z,8.84
2018-04-25T23:31:36.301Z,8.75
2018-04-25T23:34:02.694Z,8.97
2018-04-25T23:36:29.016Z,8.98
2018-04-25T23:38:55.296Z,8.74
2018-04-25T23:41:21.631Z,8.53
2018-04-25T23:43:47.961Z,8.42
2018-04-25T23:46:14.292Z,8.68
2018-04-25T23:48:40.559Z,8.74
2018-04-25T23:51:06.881Z,8.63
2018-04-25T23:53:33.155Z,8.82
2018-04-25T23:55:59.477Z,8.66
2018-04-25T23:58:25.777Z,8.73
